Main page
METAR-TAF:

METAR-TAF

Airports :

Longyearbyen, Norway

Svalbard Airport

latitude: 78-15N, longitude: 015-28E, elevation: 2 m

Current weather observation

The report was made 1 hour and 12 minutes ago, at 21:50 UTC
Wind 3 kt from the West/Southwest, varying between South and West
Temperature 5°C
Humidity 75%
Pressure 1019 hPa
Visibility 10 km or more
Few clouds at a height of 800 ft
Broken clouds at a height of 1500 ft

METAR: ENSB 232150Z 24003KT 190V280 9999 FEW008 BKN015 05/01 Q1019 RMK WIND 1400FT 22012KT

Time: 01:02 (23:02 UTC)

Forecast

Forecast valid from 23 at 18 UTC to 24 at 18 UTC
Wind 8 kt from the West/Southwest
Visibility 10 km or more
Few clouds at a height of 1200 ft
Broken clouds at a height of 3000 ft
Probability 40% :
Temporary
from 23 at 18 UTC to 24 at 06 UTC
Broken clouds at a height of 1200 ft

TAF: ENSB 2318/2418 25008KT 9999 FEW012 BKN030 PROB40 TEMPO 2318/2406 BKN012

Weather observations and forecasts of more than 4000 airports (METAR and TAF reports).

The available stations are represented by yellow and red dots on the map.

Hover mouse over dot to see the name of the station.

Then click to see weather observations and forecasts.

To change the map : click on the green buttons with a black cross to zoom in, on the green button with a dash to zoom out, or on the green arrows for adjacent maps.


METAR-TAF: